createdAt,value
2023-02-17T00:02:16.114Z,49.72
2023-02-17T00:04:42.654Z,49.27
2023-02-17T00:07:09.272Z,50.22
2023-02-17T00:09:37.446Z,49.29
2023-02-17T00:12:04.187Z,49.64
2023-02-17T00:14:30.712Z,49.64
2023-02-17T00:16:57.245Z,49.97
2023-02-17T00:19:25.011Z,49.15
2023-02-17T00:22:00.443Z,49.27
2023-02-17T00:24:29.590Z,49.74
2023-02-17T00:26:56.565Z,49.71
2023-02-17T00:29:23.384Z,49.34
2023-02-17T00:31:52.109Z,50.16
2023-02-17T00:34:19.148Z,49.42
2023-02-17T00:36:46.076Z,49.38
2023-02-17T00:39:15.174Z,49.29
2023-02-17T00:41:42.353Z,49.63
2023-02-17T00:44:18.834Z,49.69
2023-02-17T00:46:46.440Z,50.05
2023-02-17T00:49:19.313Z,50.05
2023-02-17T00:51:46.618Z,49.86
2023-02-17T00:54:14.201Z,49.51
2023-02-17T00:56:41.010Z,49.28
2023-02-17T00:59:09.139Z,50.13
2023-02-17T01:01:36.627Z,49.43
2023-02-17T01:04:03.904Z,49.31
2023-02-17T01:06:36.333Z,49.58
2023-02-17T01:09:06.193Z,49.34
2023-02-17T01:11:34.142Z,49.92
2023-02-17T01:14:02.289Z,49.67
2023-02-17T01:16:35.280Z,49.57
2023-02-17T01:19:03.627Z,50.02
2023-02-17T01:21:31.243Z,50.02
2023-02-17T01:23:59.731Z,49.64
2023-02-17T01:26:28.320Z,49.69
2023-02-17T01:28:55.433Z,50.18
2023-02-17T01:31:23.295Z,49.35
2023-02-17T01:33:50.143Z,49.91
2023-02-17T01:36:18.978Z,49.94
2023-02-17T01:38:46.571Z,49.40
2023-02-17T01:41:14.150Z,49.71
2023-02-17T01:43:41.055Z,50.09
2023-02-17T01:46:09.292Z,50.43
2023-02-17T01:48:43.576Z,49.49
2023-02-17T01:51:26.339Z,49.53
2023-02-17T01:53:59.277Z,49.41
2023-02-17T01:56:28.075Z,49.55
2023-02-17T01:59:05.749Z,49.82
2023-02-17T02:01:32.751Z,50.34
2023-02-17T02:04:02.786Z,49.38
2023-02-17T02:06:31.298Z,49.73
2023-02-17T02:09:23.898Z,49.61
2023-02-17T02:11:51.498Z,49.89
2023-02-17T02:14:20.925Z,49.65
2023-02-17T02:17:07.261Z,50.49
2023-02-17T02:19:48.789Z,49.92
2023-02-17T02:22:33.312Z,49.64
2023-02-17T02:25:26.547Z,49.93
2023-02-17T02:28:21.026Z,49.75
2023-02-17T02:31:03.095Z,50.22
2023-02-17T02:33:50.196Z,49.96
2023-02-17T02:36:42.428Z,50.42
2023-02-17T02:39:21.049Z,49.85
2023-02-17T02:41:52.968Z,49.61
2023-02-17T02:44:21.791Z,50.12
2023-02-17T02:47:06.951Z,50.60
2023-02-17T02:49:36.571Z,50.32
2023-02-17T02:52:19.909Z,50.34
2023-02-17T02:54:57.593Z,50.18
2023-02-17T02:57:29.917Z,49.98
2023-02-17T03:00:18.314Z,49.55
2023-02-17T03:03:06.565Z,50.18
2023-02-17T03:05:55.374Z,49.44
2023-02-17T03:08:38.850Z,50.00
2023-02-17T03:11:05.679Z,50.36
2023-02-17T03:13:39.483Z,49.79
2023-02-17T03:16:07.101Z,49.92
2023-02-17T03:18:35.498Z,49.95
2023-02-17T03:21:15.627Z,50.48
2023-02-17T03:23:42.187Z,49.69
2023-02-17T03:26:08.695Z,50.32
2023-02-17T03:28:35.221Z,50.43
2023-02-17T03:31:01.852Z,49.49
2023-02-17T03:33:28.393Z,49.45
2023-02-17T03:35:54.914Z,50.06
2023-02-17T03:38:21.467Z,49.75
2023-02-17T03:40:47.994Z,50.29
2023-02-17T03:43:17.890Z,50.05
2023-02-17T03:45:44.716Z,50.02
2023-02-17T03:48:11.203Z,49.78
2023-02-17T03:50:37.734Z,49.59
2023-02-17T03:53:05.182Z,49.75
2023-02-17T03:55:31.741Z,49.90
2023-02-17T03:57:58.293Z,49.89
2023-02-17T04:00:24.940Z,50.14
2023-02-17T04:02:51.479Z,50.45
2023-02-17T04:05:18.089Z,49.97
2023-02-17T04:07:44.633Z,49.97
2023-02-17T04:10:11.249Z,50.55
2023-02-17T04:12:37.730Z,49.83
2023-02-17T04:15:04.477Z,50.23
2023-02-17T04:17:30.976Z,50.00
2023-02-17T04:19:57.769Z,50.14
2023-02-17T04:22:24.405Z,50.18
2023-02-17T04:24:50.954Z,49.86
2023-02-17T04:27:17.465Z,49.91
2023-02-17T04:29:44.004Z,49.97
2023-02-17T04:32:10.527Z,50.39
2023-02-17T04:34:37.132Z,50.58
2023-02-17T04:37:03.846Z,49.79
2023-02-17T04:39:30.443Z,49.56
2023-02-17T04:41:56.966Z,49.65
2023-02-17T04:44:23.459Z,50.23
2023-02-17T04:46:50.048Z,50.14
2023-02-17T04:49:16.545Z,50.07
2023-02-17T04:51:43.091Z,49.56
2023-02-17T04:54:09.614Z,49.82
2023-02-17T04:56:36.091Z,49.79
2023-02-17T04:59:02.619Z,50.38
2023-02-17T05:01:29.175Z,49.98
2023-02-17T05:03:55.660Z,50.60
2023-02-17T05:06:22.340Z,50.32
2023-02-17T05:08:50.546Z,50.24
2023-02-17T05:11:17.006Z,49.80
2023-02-17T05:13:43.527Z,50.48
2023-02-17T05:16:10.288Z,49.81
2023-02-17T05:18:36.856Z,50.58
2023-02-17T05:21:03.513Z,50.73
2023-02-17T05:23:30.051Z,51.00
2023-02-17T05:25:56.522Z,50.88
2023-02-17T05:28:23.066Z,50.01
2023-02-17T05:30:50.126Z,50.58
2023-02-17T05:33:16.870Z,51.11
2023-02-17T05:35:43.364Z,50.76
2023-02-17T05:38:09.889Z,49.85
2023-02-17T05:40:36.466Z,50.13
2023-02-17T05:43:03.068Z,50.21
2023-02-17T05:45:29.588Z,51.16
2023-02-17T05:47:56.076Z,50.87
2023-02-17T05:50:22.587Z,50.36
2023-02-17T05:52:49.115Z,50.46
2023-02-17T05:55:15.782Z,50.89
2023-02-17T05:57:42.293Z,50.43
2023-02-17T06:00:09.346Z,50.54
2023-02-17T06:02:35.893Z,50.55
2023-02-17T06:05:02.548Z,50.55
2023-02-17T06:07:29.133Z,50.17
2023-02-17T06:09:55.633Z,50.22
2023-02-17T06:12:22.155Z,50.81
2023-02-17T06:14:48.854Z,50.66
2023-02-17T06:17:15.394Z,50.53
2023-02-17T06:19:41.944Z,50.12
2023-02-17T06:22:08.495Z,50.50
2023-02-17T06:24:34.975Z,50.71
2023-02-17T06:27:01.646Z,50.64
2023-02-17T06:29:28.154Z,50.67
2023-02-17T06:31:55.015Z,50.40
2023-02-17T06:34:21.589Z,50.56
2023-02-17T06:36:48.200Z,50.68
2023-02-17T06:39:14.799Z,50.34
2023-02-17T06:41:42.701Z,51.15
2023-02-17T06:44:09.372Z,50.51
2023-02-17T06:46:35.942Z,51.01
2023-02-17T06:49:02.577Z,50.81
2023-02-17T06:51:29.119Z,51.06
2023-02-17T06:53:56.161Z,50.51
2023-02-17T06:56:23.100Z,50.29
2023-02-17T06:58:50.162Z,51.06
2023-02-17T07:01:26.273Z,50.56
2023-02-17T07:03:53.800Z,50.67
2023-02-17T07:06:21.175Z,50.65
2023-02-17T07:08:47.670Z,50.66
2023-02-17T07:11:15.762Z,51.50
2023-02-17T07:13:43.302Z,50.84
2023-02-17T07:16:11.411Z,50.98
2023-02-17T07:18:38.132Z,51.09
2023-02-17T07:21:09.830Z,50.53
2023-02-17T07:23:37.177Z,50.98
2023-02-17T07:26:09.795Z,51.03
2023-02-17T07:28:37.367Z,50.88
2023-02-17T07:31:16.149Z,51.15
2023-02-17T07:33:43.797Z,51.14
2023-02-17T07:36:12.877Z,50.67
2023-02-17T07:38:40.213Z,50.83
2023-02-17T07:41:12.974Z,50.29
2023-02-17T07:43:39.521Z,50.30
2023-02-17T07:46:07.207Z,50.50
2023-02-17T07:48:34.157Z,51.26
2023-02-17T07:51:27.019Z,51.39
2023-02-17T07:53:53.652Z,50.65
2023-02-17T07:56:21.619Z,51.22
2023-02-17T07:58:49.051Z,51.05
2023-02-17T08:01:21.140Z,50.96
2023-02-17T08:03:48.917Z,51.28
2023-02-17T08:06:21.522Z,50.71
2023-02-17T08:09:07.778Z,50.53
2023-02-17T08:11:52.958Z,51.02
2023-02-17T08:14:25.111Z,50.91
2023-02-17T08:16:51.677Z,50.93
2023-02-17T08:19:18.360Z,51.31
2023-02-17T08:21:45.305Z,51.33
2023-02-17T08:24:12.317Z,50.53
2023-02-17T08:26:39.869Z,50.95
2023-02-17T08:29:06.391Z,50.93
2023-02-17T08:31:35.242Z,50.97
2023-02-17T08:34:04.524Z,51.16
2023-02-17T08:36:31.285Z,50.95
2023-02-17T08:38:58.470Z,51.34
2023-02-17T08:41:31.293Z,50.69
2023-02-17T08:43:59.683Z,51.20
2023-02-17T08:46:28.180Z,50.95
2023-02-17T08:48:54.990Z,51.04
2023-02-17T08:51:25.826Z,51.25
2023-02-17T08:53:54.428Z,51.33
2023-02-17T08:56:23.027Z,51.32
2023-02-17T08:58:49.926Z,50.86
2023-02-17T09:01:18.986Z,51.61
2023-02-17T09:03:47.271Z,51.17
2023-02-17T09:06:13.915Z,51.16
2023-02-17T09:08:41.002Z,51.11
2023-02-17T09:11:09.695Z,51.23
2023-02-17T09:13:36.504Z,52.01
2023-02-17T09:16:03.509Z,51.73
2023-02-17T09:18:30.371Z,51.25
2023-02-17T09:20:58.418Z,51.25
2023-02-17T09:23:25.152Z,51.37
2023-02-17T09:26:02.165Z,51.31
2023-02-17T09:28:28.682Z,51.21
2023-02-17T09:30:55.241Z,51.21
2023-02-17T09:33:21.781Z,51.04
2023-02-17T09:35:49.255Z,51.04
2023-02-17T09:38:16.460Z,51.32
2023-02-17T09:40:49.076Z,51.84
2023-02-17T09:43:18.793Z,51.52
2023-02-17T09:45:54.806Z,51.69
2023-02-17T09:48:26.886Z,51.00
2023-02-17T09:51:15.498Z,51.05
2023-02-17T09:54:26.782Z,51.62
2023-02-17T09:56:56.978Z,51.04
2023-02-17T09:59:55.889Z,51.30
2023-02-17T10:02:33.720Z,50.88
2023-02-17T10:05:06.130Z,51.14
2023-02-17T10:08:00.831Z,51.40
2023-02-17T10:10:51.577Z,51.59
2023-02-17T10:13:22.097Z,51.25
2023-02-17T10:15:51.922Z,51.10
2023-02-17T10:18:48.693Z,51.44
2023-02-17T10:21:23.785Z,51.14
2023-02-17T10:23:51.475Z,50.90
2023-02-17T10:26:23.918Z,51.16
2023-02-17T10:29:14.575Z,51.72
2023-02-17T10:32:00.610Z,51.68
2023-02-17T10:34:42.884Z,51.41
2023-02-17T10:37:22.348Z,51.14
2023-02-17T10:39:58.341Z,51.32
2023-02-17T10:42:32.349Z,51.19
2023-02-17T10:45:07.302Z,51.21
2023-02-17T10:47:36.886Z,51.61
2023-02-17T10:50:08.349Z,50.76
2023-02-17T10:52:39.399Z,51.74
2023-02-17T10:55:22.818Z,51.04
2023-02-17T10:57:58.746Z,51.47
2023-02-17T11:00:26.726Z,51.58
2023-02-17T11:02:54.055Z,51.42
2023-02-17T11:05:30.319Z,51.64
2023-02-17T11:08:01.413Z,51.33
2023-02-17T11:10:32.600Z,51.19
2023-02-17T11:13:00.154Z,51.13
2023-02-17T11:15:31.605Z,51.43
2023-02-17T11:18:01.349Z,51.31
2023-02-17T11:20:32.212Z,51.00
2023-02-17T11:23:04.775Z,51.65
2023-02-17T11:25:37.642Z,50.97
2023-02-17T11:28:12.988Z,51.54
2023-02-17T11:30:48.578Z,51.35
2023-02-17T11:33:20.158Z,51.52
2023-02-17T11:36:06.935Z,51.58
2023-02-17T11:38:43.119Z,51.18
2023-02-17T11:41:11.038Z,50.81
2023-02-17T11:43:39.808Z,50.87
2023-02-17T11:46:29.974Z,51.70
2023-02-17T11:49:41.610Z,51.26
2023-02-17T11:52:14.119Z,50.89
2023-02-17T11:54:58.678Z,51.67
2023-02-17T11:57:38.614Z,51.12
2023-02-17T12:00:24.912Z,51.76
2023-02-17T12:03:10.262Z,51.21
2023-02-17T12:05:51.676Z,51.26
2023-02-17T12:08:29.262Z,51.50
2023-02-17T12:11:08.150Z,51.08
2023-02-17T12:13:53.622Z,51.59
2023-02-17T12:16:48.496Z,51.92
2023-02-17T12:19:44.712Z,51.83
2023-02-17T12:22:40.691Z,51.49
2023-02-17T12:25:38.986Z,51.85
2023-02-17T12:28:34.438Z,51.69
2023-02-17T12:31:21.526Z,51.78
2023-02-17T12:33:56.884Z,51.09
2023-02-17T12:36:29.871Z,51.39
2023-02-17T12:39:11.489Z,50.93
2023-02-17T12:42:03.933Z,51.65
2023-02-17T12:44:35.306Z,51.07
2023-02-17T12:47:31.190Z,51.89
2023-02-17T12:50:19.559Z,52.05
2023-02-17T12:52:51.851Z,51.78
2023-02-17T12:55:23.124Z,51.81
2023-02-17T12:58:04.127Z,52.15
2023-02-17T13:00:39.264Z,51.72
2023-02-17T13:03:06.725Z,52.29
2023-02-17T13:05:42.225Z,51.45
2023-02-17T13:08:27.142Z,51.57
2023-02-17T13:11:10.908Z,51.29
2023-02-17T13:13:37.649Z,51.76
2023-02-17T13:16:06.330Z,51.95
2023-02-17T13:18:41.967Z,51.31
2023-02-17T13:21:32.354Z,51.96
2023-02-17T13:24:01.912Z,51.36
2023-02-17T13:26:36.744Z,51.71
2023-02-17T13:29:34.514Z,51.10
2023-02-17T13:32:07.474Z,50.70
2023-02-17T13:34:43.350Z,51.52
2023-02-17T13:37:46.301Z,51.91
2023-02-17T13:40:15.674Z,51.24
2023-02-17T13:42:47.767Z,51.26
2023-02-17T13:45:39.944Z,51.21
2023-02-17T13:48:30.889Z,51.51
2023-02-17T13:51:23.929Z,51.70
2023-02-17T13:53:50.767Z,51.39
2023-02-17T13:56:30.667Z,51.76
2023-02-17T13:59:18.295Z,51.80
2023-02-17T14:01:46.512Z,51.64
2023-02-17T14:04:24.487Z,51.87
2023-02-17T14:06:52.928Z,51.32
2023-02-17T14:09:30.611Z,51.35
2023-02-17T14:11:58.665Z,51.18
2023-02-17T14:14:30.926Z,51.69
2023-02-17T14:17:27.954Z,51.21
2023-02-17T14:19:54.657Z,51.41
2023-02-17T14:22:32.402Z,51.60
2023-02-17T14:25:14.591Z,51.61
2023-02-17T14:27:47.473Z,51.88
2023-02-17T14:30:27.353Z,51.75
2023-02-17T14:33:16.286Z,51.77
2023-02-17T14:36:00.495Z,51.49
2023-02-17T14:38:29.181Z,51.62
2023-02-17T14:40:58.725Z,51.40
2023-02-17T14:43:25.514Z,51.57
2023-02-17T14:45:52.052Z,51.12
2023-02-17T14:48:19.051Z,51.15
2023-02-17T14:50:46.607Z,51.17
2023-02-17T14:53:29.541Z,51.38
2023-02-17T14:56:02.560Z,51.05
2023-02-17T14:58:30.077Z,51.13
2023-02-17T15:00:56.990Z,50.90
2023-02-17T15:03:23.628Z,51.05
2023-02-17T15:05:50.591Z,50.96
2023-02-17T15:08:25.330Z,51.42
2023-02-17T15:10:51.861Z,50.82
2023-02-17T15:13:21.367Z,50.64
2023-02-17T15:15:49.389Z,51.02
2023-02-17T15:18:18.224Z,51.06
2023-02-17T15:20:47.871Z,51.01
2023-02-17T15:23:17.776Z,50.92
2023-02-17T15:25:45.519Z,50.99
2023-02-17T15:28:17.228Z,51.41
2023-02-17T15:30:48.594Z,50.70
2023-02-17T15:33:15.300Z,51.00
2023-02-17T15:35:41.971Z,51.13
2023-02-17T15:38:13.150Z,50.62
2023-02-17T15:40:41.178Z,51.10
2023-02-17T15:43:13.547Z,50.91
2023-02-17T15:45:40.166Z,51.00
2023-02-17T15:48:13.912Z,51.43
2023-02-17T15:50:40.506Z,50.89
2023-02-17T15:53:06.989Z,50.76
2023-02-17T15:55:33.944Z,51.10
2023-02-17T15:58:04.913Z,50.85
2023-02-17T16:00:34.063Z,50.97
2023-02-17T16:03:00.648Z,51.50
2023-02-17T16:05:29.462Z,50.93
2023-02-17T16:07:56.499Z,51.24
2023-02-17T16:10:27.234Z,50.83
2023-02-17T16:12:56.815Z,51.11
2023-02-17T16:15:25.355Z,51.10
2023-02-17T16:17:52.213Z,51.50
2023-02-17T16:20:26.196Z,51.27
2023-02-17T16:22:52.919Z,50.88
2023-02-17T16:25:21.555Z,51.22
2023-02-17T16:27:50.678Z,51.40
2023-02-17T16:30:21.873Z,51.43
2023-02-17T16:32:50.094Z,51.35
2023-02-17T16:35:26.149Z,51.20
2023-02-17T16:38:02.785Z,51.16
2023-02-17T16:40:31.616Z,51.27
2023-02-17T16:42:58.295Z,51.55
2023-02-17T16:45:28.500Z,51.43
2023-02-17T16:47:59.159Z,50.56
2023-02-17T16:50:35.281Z,51.47
2023-02-17T16:53:05.019Z,51.36
2023-02-17T16:55:34.435Z,51.10
2023-02-17T16:58:02.229Z,51.69
2023-02-17T17:00:31.468Z,51.90
2023-02-17T17:02:59.156Z,51.34
2023-02-17T17:05:28.652Z,51.71
2023-02-17T17:07:56.132Z,51.22
2023-02-17T17:10:31.479Z,51.47
2023-02-17T17:12:58.184Z,52.05
2023-02-17T17:15:25.346Z,51.89
2023-02-17T17:18:03.774Z,51.69
2023-02-17T17:20:34.176Z,51.92
2023-02-17T17:23:06.718Z,52.13
2023-02-17T17:25:36.996Z,51.44
2023-02-17T17:28:04.076Z,51.80
2023-02-17T17:30:33.117Z,51.18
2023-02-17T17:32:59.717Z,51.30
2023-02-17T17:35:27.118Z,51.63
2023-02-17T17:37:53.735Z,51.44
2023-02-17T17:40:23.286Z,51.72
2023-02-17T17:42:50.243Z,51.78
2023-02-17T17:45:17.042Z,51.99
2023-02-17T17:47:43.730Z,51.95
2023-02-17T17:50:17.583Z,52.05
2023-02-17T17:52:45.595Z,51.61
2023-02-17T17:55:13.689Z,51.55
2023-02-17T17:57:40.725Z,51.85
2023-02-17T18:00:09.622Z,52.11
2023-02-17T18:02:36.199Z,52.37
2023-02-17T18:05:02.786Z,52.27
2023-02-17T18:07:30.052Z,52.18
2023-02-17T18:09:56.779Z,52.59
2023-02-17T18:12:23.383Z,51.87
2023-02-17T18:14:53.249Z,52.48
2023-02-17T18:17:21.845Z,52.38
2023-02-17T18:19:49.273Z,52.42
2023-02-17T18:22:15.885Z,52.21
2023-02-17T18:24:42.525Z,52.17
2023-02-17T18:27:09.154Z,52.58
2023-02-17T18:29:36.816Z,52.65
2023-02-17T18:32:03.426Z,52.67
2023-02-17T18:34:30.019Z,52.78
2023-02-17T18:36:56.579Z,52.49
2023-02-17T18:39:23.121Z,52.10
2023-02-17T18:41:49.623Z,52.71
2023-02-17T18:44:16.347Z,52.09
2023-02-17T18:46:42.910Z,52.11
2023-02-17T18:49:09.911Z,52.80
2023-02-17T18:51:36.505Z,52.83
2023-02-17T18:54:04.928Z,52.12
2023-02-17T18:56:33.907Z,53.01
2023-02-17T18:59:00.823Z,52.75
2023-02-17T19:01:30.938Z,52.83
2023-02-17T19:03:58.854Z,52.11
2023-02-17T19:06:28.782Z,52.60
2023-02-17T19:08:55.623Z,52.15
2023-02-17T19:11:23.973Z,52.17
2023-02-17T19:13:51.536Z,52.88
2023-02-17T19:16:24.322Z,52.87
2023-02-17T19:18:51.661Z,53.29
2023-02-17T19:21:18.958Z,53.03
2023-02-17T19:23:45.752Z,52.68
2023-02-17T19:26:13.947Z,52.67
2023-02-17T19:28:41.216Z,52.63
2023-02-17T19:31:11.126Z,52.68
2023-02-17T19:33:37.989Z,53.01
2023-02-17T19:36:08.985Z,53.02
2023-02-17T19:38:36.190Z,53.09
2023-02-17T19:41:07.810Z,52.76
2023-02-17T19:43:34.471Z,52.70
2023-02-17T19:46:01.010Z,52.69
2023-02-17T19:48:27.874Z,52.65
2023-02-17T19:51:06.576Z,53.20
2023-02-17T19:53:34.212Z,52.71
2023-02-17T19:56:14.577Z,52.97
2023-02-17T19:58:43.035Z,52.46
2023-02-17T20:01:12.740Z,52.66
2023-02-17T20:03:39.733Z,52.67
2023-02-17T20:06:13.302Z,52.63
2023-02-17T20:08:40.361Z,52.19
2023-02-17T20:11:08.674Z,52.64
2023-02-17T20:13:45.325Z,52.41
2023-02-17T20:16:14.692Z,52.86
2023-02-17T20:18:44.705Z,52.96
2023-02-17T20:21:13.400Z,52.35
2023-02-17T20:23:40.006Z,52.17
2023-02-17T20:26:09.642Z,52.26
2023-02-17T20:28:36.357Z,52.13
2023-02-17T20:31:04.108Z,52.43
2023-02-17T20:33:31.710Z,53.00
2023-02-17T20:35:58.294Z,52.74
2023-02-17T20:38:24.873Z,52.30
2023-02-17T20:40:52.819Z,52.39
2023-02-17T20:43:20.590Z,52.62
2023-02-17T20:45:49.380Z,52.22
2023-02-17T20:48:16.551Z,52.10
2023-02-17T20:50:44.579Z,52.33
2023-02-17T20:53:11.557Z,52.56
2023-02-17T20:55:38.119Z,52.48
2023-02-17T20:58:04.987Z,51.98
2023-02-17T21:00:31.856Z,52.64
2023-02-17T21:02:58.429Z,51.99
2023-02-17T21:05:24.995Z,52.76
2023-02-17T21:07:52.318Z,52.15
2023-02-17T21:10:25.273Z,52.69
2023-02-17T21:12:51.739Z,52.61
2023-02-17T21:15:18.413Z,52.22
2023-02-17T21:17:45.357Z,52.74
2023-02-17T21:20:15.557Z,51.99
2023-02-17T21:22:42.111Z,52.18
2023-02-17T21:25:09.424Z,52.76
2023-02-17T21:27:36.720Z,52.25
2023-02-17T21:30:07.683Z,52.28
2023-02-17T21:32:34.267Z,52.11
2023-02-17T21:35:00.927Z,52.23
2023-02-17T21:37:27.719Z,52.59
2023-02-17T21:39:54.372Z,52.40
2023-02-17T21:42:41.099Z,52.10
2023-02-17T21:45:07.928Z,52.04
2023-02-17T21:47:34.509Z,52.67
2023-02-17T21:50:01.088Z,52.27
2023-02-17T21:52:27.585Z,51.89
2023-02-17T21:54:54.378Z,52.75
2023-02-17T21:57:21.041Z,52.32
2023-02-17T21:59:47.556Z,51.93
2023-02-17T22:02:14.034Z,52.03
2023-02-17T22:04:40.566Z,52.69
2023-02-17T22:07:07.079Z,52.31
2023-02-17T22:09:33.620Z,52.56
2023-02-17T22:12:00.313Z,52.12
2023-02-17T22:14:26.828Z,52.69
2023-02-17T22:16:53.383Z,51.95
2023-02-17T22:19:22.934Z,52.45
2023-02-17T22:21:50.617Z,52.18
2023-02-17T22:24:19.425Z,52.10
2023-02-17T22:26:46.035Z,52.35
2023-02-17T22:29:12.722Z,52.55
2023-02-17T22:31:39.694Z,52.34
2023-02-17T22:34:09.750Z,52.53
2023-02-17T22:36:37.087Z,52.54
2023-02-17T22:39:05.488Z,52.14
2023-02-17T22:41:33.331Z,52.62
2023-02-17T22:44:01.157Z,52.71
2023-02-17T22:46:27.710Z,52.36
2023-02-17T22:48:55.829Z,51.97
2023-02-17T22:51:25.318Z,52.65
2023-02-17T22:53:52.266Z,52.22
2023-02-17T22:56:19.558Z,52.25
2023-02-17T22:58:46.122Z,52.66
2023-02-17T23:01:14.179Z,51.81
2023-02-17T23:03:42.142Z,52.52
2023-02-17T23:06:13.558Z,52.03
2023-02-17T23:08:40.227Z,52.28
2023-02-17T23:11:08.525Z,52.54
2023-02-17T23:13:36.279Z,52.27
2023-02-17T23:16:03.488Z,52.00
2023-02-17T23:18:31.997Z,52.50
2023-02-17T23:20:58.926Z,51.76
2023-02-17T23:23:26.250Z,51.75
2023-02-17T23:25:55.105Z,52.04
2023-02-17T23:28:24.417Z,51.90
2023-02-17T23:30:51.768Z,51.81
2023-02-17T23:33:20.647Z,52.50
2023-02-17T23:35:47.718Z,52.11
2023-02-17T23:38:17.962Z,52.26
2023-02-17T23:40:50.544Z,52.00
2023-02-17T23:43:17.944Z,51.81
2023-02-17T23:45:44.611Z,52.17
2023-02-17T23:48:11.810Z,52.16
2023-02-17T23:50:38.477Z,51.66
2023-02-17T23:53:05.428Z,51.97
2023-02-17T23:55:31.996Z,52.28
2023-02-17T23:58:00.514Z,52.14
